sensor_id;sensor_type;location;lat;lon;timestamp;P1;durP1;ratioP1;P2;durP2;ratioP2
47760;SDS011;33524;55.434;38.520;2022-09-12T00:01:18;7.75;;;4.95;;
47760;SDS011;33524;55.434;38.520;2022-09-12T00:03:52;7.97;;;5.95;;
47760;SDS011;33524;55.434;38.520;2022-09-12T00:06:25;9.13;;;5.65;;
47760;SDS011;33524;55.434;38.520;2022-09-12T00:08:57;11.10;;;5.70;;
47760;SDS011;33524;55.434;38.520;2022-09-12T00:11:26;9.07;;;5.95;;
47760;SDS011;33524;55.434;38.520;2022-09-12T00:13:56;8.55;;;4.80;;
47760;SDS011;33524;55.434;38.520;2022-09-12T00:16:26;10.45;;;6.12;;
47760;SDS011;33524;55.434;38.520;2022-09-12T00:18:56;7.62;;;5.40;;
47760;SDS011;33524;55.434;38.520;2022-09-12T00:21:24;6.00;;;4.07;;
47760;SDS011;33524;55.434;38.520;2022-09-12T00:23:51;6.93;;;5.10;;
47760;SDS011;33524;55.434;38.520;2022-09-12T00:26:20;5.62;;;3.58;;
47760;SDS011;33524;55.434;38.520;2022-09-12T00:28:48;11.35;;;5.97;;
47760;SDS011;33524;55.434;38.520;2022-09-12T00:31:18;10.02;;;6.47;;
47760;SDS011;33524;55.434;38.520;2022-09-12T00:33:48;10.63;;;5.03;;
47760;SDS011;33524;55.434;38.520;2022-09-12T00:36:17;6.47;;;4.40;;
47760;SDS011;33524;55.434;38.520;2022-09-12T00:38:46;10.18;;;4.87;;
47760;SDS011;33524;55.434;38.520;2022-09-12T00:41:19;8.25;;;5.25;;
47760;SDS011;33524;55.434;38.520;2022-09-12T00:43:51;8.98;;;5.30;;
47760;SDS011;33524;55.434;38.520;2022-09-12T00:46:29;6.87;;;4.75;;
47760;SDS011;33524;55.434;38.520;2022-09-12T00:51:55;7.22;;;4.95;;
47760;SDS011;33524;55.434;38.520;2022-09-12T00:54:31;10.75;;;5.72;;
47760;SDS011;33524;55.434;38.520;2022-09-12T00:57:03;8.93;;;5.03;;
47760;SDS011;33524;55.434;38.520;2022-09-12T00:59:37;7.25;;;5.72;;
47760;SDS011;33524;55.434;38.520;2022-09-12T01:02:36;8.80;;;5.43;;
47760;SDS011;33524;55.434;38.520;2022-09-12T01:05:05;9.75;;;5.05;;
47760;SDS011;33524;55.434;38.520;2022-09-12T01:07:34;9.07;;;5.50;;
47760;SDS011;33524;55.434;38.520;2022-09-12T01:10:07;11.50;;;6.03;;
47760;SDS011;33524;55.434;38.520;2022-09-12T01:12:36;7.37;;;5.70;;
47760;SDS011;33524;55.434;38.520;2022-09-12T01:15:07;9.48;;;5.57;;
47760;SDS011;33524;55.434;38.520;2022-09-12T01:17:50;8.93;;;5.10;;
47760;SDS011;33524;55.434;38.520;2022-09-12T01:32:26;10.68;;;6.37;;
47760;SDS011;33524;55.434;38.520;2022-09-12T01:49:53;10.10;;;4.65;;
47760;SDS011;33524;55.434;38.520;2022-09-12T01:52:41;5.95;;;4.50;;
47760;SDS011;33524;55.434;38.520;2022-09-12T02:00:30;7.95;;;5.32;;
47760;SDS011;33524;55.434;38.520;2022-09-12T02:05:51;6.75;;;4.05;;
47760;SDS011;33524;55.434;38.520;2022-09-12T02:08:30;8.95;;;5.70;;
47760;SDS011;33524;55.434;38.520;2022-09-12T02:11:08;7.10;;;5.12;;
47760;SDS011;33524;55.434;38.520;2022-09-12T02:13:42;9.80;;;5.60;;
47760;SDS011;33524;55.434;38.520;2022-09-12T02:16:15;7.72;;;5.78;;
47760;SDS011;33524;55.434;38.520;2022-09-12T02:18:54;9.77;;;6.12;;
47760;SDS011;33524;55.434;38.520;2022-09-12T02:21:26;7.15;;;4.55;;
47760;SDS011;33524;55.434;38.520;2022-09-12T02:24:01;7.20;;;5.05;;
47760;SDS011;33524;55.434;38.520;2022-09-12T02:26:33;7.22;;;4.10;;
47760;SDS011;33524;55.434;38.520;2022-09-12T02:29:05;9.45;;;6.05;;
47760;SDS011;33524;55.434;38.520;2022-09-12T02:37:17;6.75;;;4.80;;
47760;SDS011;33524;55.434;38.520;2022-09-12T02:39:53;7.18;;;5.18;;
47760;SDS011;33524;55.434;38.520;2022-09-12T02:42:23;8.77;;;6.00;;
47760;SDS011;33524;55.434;38.520;2022-09-12T02:44:51;6.50;;;4.82;;
47760;SDS011;33524;55.434;38.520;2022-09-12T02:47:25;10.13;;;5.15;;
47760;SDS011;33524;55.434;38.520;2022-09-12T02:49:57;7.87;;;4.20;;
47760;SDS011;33524;55.434;38.520;2022-09-12T02:52:26;9.57;;;5.45;;
47760;SDS011;33524;55.434;38.520;2022-09-12T02:54:55;8.80;;;5.40;;
47760;SDS011;33524;55.434;38.520;2022-09-12T02:57:24;9.00;;;5.45;;
47760;SDS011;33524;55.434;38.520;2022-09-12T02:59:54;8.48;;;5.30;;
47760;SDS011;33524;55.434;38.520;2022-09-12T03:10:41;8.95;;;5.90;;
47760;SDS011;33524;55.434;38.520;2022-09-12T03:16:27;8.30;;;6.12;;
47760;SDS011;33524;55.434;38.520;2022-09-12T03:27:32;9.02;;;4.90;;
47760;SDS011;33524;55.434;38.520;2022-09-12T03:30:05;8.63;;;5.65;;
47760;SDS011;33524;55.434;38.520;2022-09-12T03:32:40;10.77;;;5.68;;
47760;SDS011;33524;55.434;38.520;2022-09-12T03:35:16;6.82;;;4.85;;
47760;SDS011;33524;55.434;38.520;2022-09-12T03:37:50;7.97;;;5.37;;
47760;SDS011;33524;55.434;38.520;2022-09-12T03:40:19;6.32;;;4.40;;
47760;SDS011;33524;55.434;38.520;2022-09-12T03:42:47;8.50;;;4.85;;
47760;SDS011;33524;55.434;38.520;2022-09-12T03:45:15;9.20;;;5.18;;
47760;SDS011;33524;55.434;38.520;2022-09-12T03:47:43;7.68;;;5.57;;
47760;SDS011;33524;55.434;38.520;2022-09-12T03:50:10;10.50;;;5.80;;
47760;SDS011;33524;55.434;38.520;2022-09-12T03:52:38;7.70;;;5.12;;
47760;SDS011;33524;55.434;38.520;2022-09-12T03:55:06;11.27;;;6.47;;
47760;SDS011;33524;55.434;38.520;2022-09-12T03:57:34;7.47;;;5.18;;
47760;SDS011;33524;55.434;38.520;2022-09-12T04:00:04;6.97;;;5.53;;
47760;SDS011;33524;55.434;38.520;2022-09-12T04:02:38;8.18;;;5.15;;
47760;SDS011;33524;55.434;38.520;2022-09-12T04:05:06;8.98;;;5.50;;
47760;SDS011;33524;55.434;38.520;2022-09-12T04:07:34;7.90;;;4.90;;
47760;SDS011;33524;55.434;38.520;2022-09-12T04:10:02;6.68;;;4.62;;
47760;SDS011;33524;55.434;38.520;2022-09-12T04:12:31;8.32;;;5.68;;
47760;SDS011;33524;55.434;38.520;2022-09-12T04:14:58;8.35;;;5.47;;
47760;SDS011;33524;55.434;38.520;2022-09-12T04:17:26;7.93;;;6.15;;
47760;SDS011;33524;55.434;38.520;2022-09-12T04:19:54;8.75;;;5.37;;
47760;SDS011;33524;55.434;38.520;2022-09-12T04:22:22;6.70;;;4.85;;
47760;SDS011;33524;55.434;38.520;2022-09-12T04:24:50;7.40;;;5.25;;
47760;SDS011;33524;55.434;38.520;2022-09-12T04:27:18;9.57;;;5.57;;
47760;SDS011;33524;55.434;38.520;2022-09-12T04:29:46;7.10;;;5.18;;
47760;SDS011;33524;55.434;38.520;2022-09-12T04:32:14;10.60;;;5.62;;
47760;SDS011;33524;55.434;38.520;2022-09-12T04:34:42;7.25;;;5.18;;
47760;SDS011;33524;55.434;38.520;2022-09-12T04:37:10;8.13;;;5.40;;
47760;SDS011;33524;55.434;38.520;2022-09-12T04:39:37;8.40;;;5.62;;
47760;SDS011;33524;55.434;38.520;2022-09-12T04:42:06;8.68;;;4.85;;
47760;SDS011;33524;55.434;38.520;2022-09-12T04:44:34;6.62;;;4.57;;
47760;SDS011;33524;55.434;38.520;2022-09-12T04:47:01;8.75;;;6.12;;
47760;SDS011;33524;55.434;38.520;2022-09-12T04:49:30;8.02;;;5.18;;
47760;SDS011;33524;55.434;38.520;2022-09-12T04:51:58;8.73;;;5.28;;
47760;SDS011;33524;55.434;38.520;2022-09-12T04:54:25;7.60;;;5.07;;
47760;SDS011;33524;55.434;38.520;2022-09-12T04:56:54;6.80;;;4.72;;
47760;SDS011;33524;55.434;38.520;2022-09-12T04:59:25;6.78;;;5.03;;
47760;SDS011;33524;55.434;38.520;2022-09-12T05:01:54;7.30;;;5.03;;
47760;SDS011;33524;55.434;38.520;2022-09-12T05:04:22;7.50;;;5.28;;
47760;SDS011;33524;55.434;38.520;2022-09-12T05:06:49;6.75;;;4.45;;
47760;SDS011;33524;55.434;38.520;2022-09-12T05:09:17;8.32;;;6.10;;
47760;SDS011;33524;55.434;38.520;2022-09-12T05:11:45;6.62;;;4.53;;
47760;SDS011;33524;55.434;38.520;2022-09-12T05:14:31;9.07;;;5.43;;
47760;SDS011;33524;55.434;38.520;2022-09-12T05:16:59;5.35;;;4.15;;
47760;SDS011;33524;55.434;38.520;2022-09-12T05:19:28;10.25;;;5.97;;
47760;SDS011;33524;55.434;38.520;2022-09-12T05:21:57;6.60;;;4.47;;
47760;SDS011;33524;55.434;38.520;2022-09-12T05:24:25;8.90;;;5.03;;
47760;SDS011;33524;55.434;38.520;2022-09-12T05:26:53;7.50;;;4.75;;
47760;SDS011;33524;55.434;38.520;2022-09-12T05:29:21;8.70;;;5.18;;
47760;SDS011;33524;55.434;38.520;2022-09-12T05:31:51;6.55;;;5.47;;
47760;SDS011;33524;55.434;38.520;2022-09-12T05:34:22;9.82;;;6.43;;
47760;SDS011;33524;55.434;38.520;2022-09-12T05:36:50;9.75;;;6.20;;
47760;SDS011;33524;55.434;38.520;2022-09-12T05:39:17;10.27;;;6.62;;
47760;SDS011;33524;55.434;38.520;2022-09-12T05:41:46;8.80;;;5.70;;
47760;SDS011;33524;55.434;38.520;2022-09-12T05:44:14;9.15;;;7.18;;
47760;SDS011;33524;55.434;38.520;2022-09-12T05:46:42;10.40;;;6.65;;
47760;SDS011;33524;55.434;38.520;2022-09-12T05:49:12;11.77;;;8.32;;
47760;SDS011;33524;55.434;38.520;2022-09-12T05:51:42;11.00;;;8.25;;
47760;SDS011;33524;55.434;38.520;2022-09-12T05:54:14;10.95;;;8.27;;
47760;SDS011;33524;55.434;38.520;2022-09-12T05:59:21;11.90;;;8.55;;
47760;SDS011;33524;55.434;38.520;2022-09-12T06:01:50;11.50;;;8.73;;
47760;SDS011;33524;55.434;38.520;2022-09-12T06:04:36;13.80;;;8.50;;
47760;SDS011;33524;55.434;38.520;2022-09-12T06:07:07;9.32;;;6.50;;
47760;SDS011;33524;55.434;38.520;2022-09-12T06:09:35;13.77;;;7.25;;
47760;SDS011;33524;55.434;38.520;2022-09-12T06:12:03;8.13;;;6.32;;
47760;SDS011;33524;55.434;38.520;2022-09-12T06:14:34;9.35;;;6.15;;
47760;SDS011;33524;55.434;38.520;2022-09-12T06:17:02;9.65;;;6.55;;
47760;SDS011;33524;55.434;38.520;2022-09-12T06:19:30;10.68;;;8.30;;
47760;SDS011;33524;55.434;38.520;2022-09-12T06:21:58;9.32;;;5.45;;
47760;SDS011;33524;55.434;38.520;2022-09-12T06:24:26;10.90;;;6.65;;
47760;SDS011;33524;55.434;38.520;2022-09-12T06:26:54;11.48;;;6.85;;
47760;SDS011;33524;55.434;38.520;2022-09-12T06:29:22;12.52;;;7.62;;
47760;SDS011;33524;55.434;38.520;2022-09-12T06:31:50;10.75;;;6.45;;
47760;SDS011;33524;55.434;38.520;2022-09-12T06:34:18;11.45;;;7.30;;
47760;SDS011;33524;55.434;38.520;2022-09-12T06:36:46;11.07;;;8.30;;
47760;SDS011;33524;55.434;38.520;2022-09-12T06:39:15;13.38;;;7.68;;
47760;SDS011;33524;55.434;38.520;2022-09-12T06:41:46;12.25;;;6.28;;
47760;SDS011;33524;55.434;38.520;2022-09-12T06:44:28;12.90;;;8.00;;
47760;SDS011;33524;55.434;38.520;2022-09-12T06:46:56;14.10;;;8.60;;
47760;SDS011;33524;55.434;38.520;2022-09-12T06:49:24;15.25;;;8.85;;
47760;SDS011;33524;55.434;38.520;2022-09-12T06:51:52;17.45;;;10.40;;
47760;SDS011;33524;55.434;38.520;2022-09-12T06:54:20;12.90;;;7.72;;
47760;SDS011;33524;55.434;38.520;2022-09-12T06:56:49;16.62;;;11.40;;
47760;SDS011;33524;55.434;38.520;2022-09-12T06:59:17;21.10;;;11.98;;
47760;SDS011;33524;55.434;38.520;2022-09-12T07:01:45;21.98;;;12.77;;
47760;SDS011;33524;55.434;38.520;2022-09-12T07:04:13;23.80;;;13.10;;
47760;SDS011;33524;55.434;38.520;2022-09-12T07:06:41;20.50;;;14.75;;
47760;SDS011;33524;55.434;38.520;2022-09-12T07:09:12;19.95;;;12.48;;
47760;SDS011;33524;55.434;38.520;2022-09-12T07:11:43;23.80;;;14.73;;
47760;SDS011;33524;55.434;38.520;2022-09-12T07:14:13;24.98;;;15.95;;
47760;SDS011;33524;55.434;38.520;2022-09-12T07:16:41;20.67;;;13.70;;
47760;SDS011;33524;55.434;38.520;2022-09-12T07:19:10;26.98;;;16.12;;
47760;SDS011;33524;55.434;38.520;2022-09-12T07:21:38;27.58;;;15.80;;
47760;SDS011;33524;55.434;38.520;2022-09-12T07:24:09;28.40;;;16.37;;
47760;SDS011;33524;55.434;38.520;2022-09-12T07:26:38;23.85;;;13.70;;
47760;SDS011;33524;55.434;38.520;2022-09-12T07:29:06;26.87;;;16.08;;
47760;SDS011;33524;55.434;38.520;2022-09-12T07:32:00;26.90;;;16.10;;
47760;SDS011;33524;55.434;38.520;2022-09-12T07:34:28;26.70;;;15.98;;
47760;SDS011;33524;55.434;38.520;2022-09-12T07:36:56;23.02;;;14.80;;
47760;SDS011;33524;55.434;38.520;2022-09-12T07:39:25;28.27;;;14.80;;
47760;SDS011;33524;55.434;38.520;2022-09-12T07:41:52;23.95;;;15.48;;
47760;SDS011;33524;55.434;38.520;2022-09-12T07:44:23;30.02;;;17.83;;
47760;SDS011;33524;55.434;38.520;2022-09-12T07:46:52;28.35;;;15.07;;
47760;SDS011;33524;55.434;38.520;2022-09-12T07:49:20;17.48;;;11.07;;
47760;SDS011;33524;55.434;38.520;2022-09-12T07:51:47;33.63;;;16.73;;
47760;SDS011;33524;55.434;38.520;2022-09-12T07:54:15;25.45;;;13.85;;
47760;SDS011;33524;55.434;38.520;2022-09-12T07:56:44;27.92;;;16.20;;
47760;SDS011;33524;55.434;38.520;2022-09-12T07:59:12;31.08;;;17.17;;
47760;SDS011;33524;55.434;38.520;2022-09-12T08:02:00;25.92;;;15.00;;
47760;SDS011;33524;55.434;38.520;2022-09-12T08:04:30;27.27;;;15.65;;
47760;SDS011;33524;55.434;38.520;2022-09-12T08:06:58;24.35;;;14.63;;
47760;SDS011;33524;55.434;38.520;2022-09-12T08:09:25;22.35;;;12.32;;
47760;SDS011;33524;55.434;38.520;2022-09-12T08:11:54;26.65;;;14.77;;
47760;SDS011;33524;55.434;38.520;2022-09-12T08:14:21;29.08;;;16.55;;
47760;SDS011;33524;55.434;38.520;2022-09-12T08:16:49;31.65;;;16.65;;
47760;SDS011;33524;55.434;38.520;2022-09-12T08:19:17;23.60;;;14.98;;
47760;SDS011;33524;55.434;38.520;2022-09-12T08:21:45;25.60;;;15.77;;
47760;SDS011;33524;55.434;38.520;2022-09-12T08:24:13;28.15;;;17.98;;
47760;SDS011;33524;55.434;38.520;2022-09-12T08:26:42;26.70;;;15.65;;
47760;SDS011;33524;55.434;38.520;2022-09-12T08:29:10;24.60;;;15.60;;
47760;SDS011;33524;55.434;38.520;2022-09-12T08:31:38;32.42;;;16.40;;
47760;SDS011;33524;55.434;38.520;2022-09-12T08:34:08;27.67;;;16.10;;
47760;SDS011;33524;55.434;38.520;2022-09-12T08:36:36;31.52;;;16.67;;
47760;SDS011;33524;55.434;38.520;2022-09-12T08:39:04;26.70;;;15.80;;
47760;SDS011;33524;55.434;38.520;2022-09-12T08:41:43;28.50;;;15.38;;
47760;SDS011;33524;55.434;38.520;2022-09-12T08:44:25;24.75;;;15.55;;
47760;SDS011;33524;55.434;38.520;2022-09-12T08:49:56;23.58;;;13.27;;
47760;SDS011;33524;55.434;38.520;2022-09-12T08:55:31;22.02;;;14.32;;
47760;SDS011;33524;55.434;38.520;2022-09-12T09:00:43;25.10;;;13.82;;
47760;SDS011;33524;55.434;38.520;2022-09-12T09:03:23;29.42;;;16.00;;
47760;SDS011;33524;55.434;38.520;2022-09-12T09:11:33;30.90;;;16.80;;
47760;SDS011;33524;55.434;38.520;2022-09-12T09:17:19;25.83;;;14.23;;
47760;SDS011;33524;55.434;38.520;2022-09-12T09:20:43;28.62;;;17.00;;
47760;SDS011;33524;55.434;38.520;2022-09-12T09:28:49;22.70;;;13.40;;
47760;SDS011;33524;55.434;38.520;2022-09-12T09:31:22;25.77;;;15.27;;
47760;SDS011;33524;55.434;38.520;2022-09-12T09:33:52;28.35;;;15.90;;
47760;SDS011;33524;55.434;38.520;2022-09-12T09:39:01;26.85;;;16.23;;
47760;SDS011;33524;55.434;38.520;2022-09-12T09:41:39;29.48;;;16.83;;
47760;SDS011;33524;55.434;38.520;2022-09-12T09:44:34;28.45;;;16.85;;
47760;SDS011;33524;55.434;38.520;2022-09-12T09:47:03;23.08;;;14.18;;
47760;SDS011;33524;55.434;38.520;2022-09-12T09:49:33;28.10;;;15.48;;
47760;SDS011;33524;55.434;38.520;2022-09-12T09:52:02;26.10;;;15.65;;
47760;SDS011;33524;55.434;38.520;2022-09-12T09:54:38;26.33;;;13.75;;
47760;SDS011;33524;55.434;38.520;2022-09-12T10:00:32;26.35;;;15.18;;
47760;SDS011;33524;55.434;38.520;2022-09-12T10:05:44;27.83;;;14.63;;
47760;SDS011;33524;55.434;38.520;2022-09-12T10:08:31;27.67;;;14.20;;
47760;SDS011;33524;55.434;38.520;2022-09-12T10:11:03;26.75;;;14.57;;
47760;SDS011;33524;55.434;38.520;2022-09-12T10:16:20;28.33;;;13.32;;
47760;SDS011;33524;55.434;38.520;2022-09-12T10:18:55;24.65;;;13.93;;
47760;SDS011;33524;55.434;38.520;2022-09-12T10:24:02;23.12;;;13.48;;
47760;SDS011;33524;55.434;38.520;2022-09-12T10:26:40;24.87;;;14.60;;
47760;SDS011;33524;55.434;38.520;2022-09-12T10:29:14;25.15;;;14.60;;
47760;SDS011;33524;55.434;38.520;2022-09-12T10:31:50;24.85;;;14.00;;
47760;SDS011;33524;55.434;38.520;2022-09-12T10:34:34;22.77;;;13.45;;
47760;SDS011;33524;55.434;38.520;2022-09-12T10:37:06;22.90;;;13.20;;
47760;SDS011;33524;55.434;38.520;2022-09-12T10:39:36;22.00;;;12.80;;
47760;SDS011;33524;55.434;38.520;2022-09-12T10:42:05;24.63;;;14.68;;
47760;SDS011;33524;55.434;38.520;2022-09-12T10:44:33;22.83;;;12.30;;
47760;SDS011;33524;55.434;38.520;2022-09-12T10:49:50;20.60;;;11.80;;
47760;SDS011;33524;55.434;38.520;2022-09-12T10:52:22;21.25;;;12.07;;
47760;SDS011;33524;55.434;38.520;2022-09-12T10:54:53;21.20;;;12.90;;
47760;SDS011;33524;55.434;38.520;2022-09-12T10:57:28;22.00;;;12.95;;
47760;SDS011;33524;55.434;38.520;2022-09-12T11:00:20;17.23;;;10.20;;
47760;SDS011;33524;55.434;38.520;2022-09-12T11:02:57;19.75;;;10.80;;
47760;SDS011;33524;55.434;38.520;2022-09-12T11:05:55;19.65;;;10.52;;
47760;SDS011;33524;55.434;38.520;2022-09-12T11:08:36;18.17;;;10.48;;
47760;SDS011;33524;55.434;38.520;2022-09-12T11:14:05;17.27;;;10.05;;
47760;SDS011;33524;55.434;38.520;2022-09-12T11:16:51;18.92;;;10.02;;
47760;SDS011;33524;55.434;38.520;2022-09-12T11:28:15;17.30;;;10.23;;
47760;SDS011;33524;55.434;38.520;2022-09-12T11:31:05;17.10;;;8.48;;
47760;SDS011;33524;55.434;38.520;2022-09-12T11:33:53;14.95;;;8.88;;
47760;SDS011;33524;55.434;38.520;2022-09-12T11:39:22;18.33;;;10.35;;
47760;SDS011;33524;55.434;38.520;2022-09-12T11:41:57;15.02;;;8.35;;
47760;SDS011;33524;55.434;38.520;2022-09-12T11:44:33;16.33;;;9.63;;
47760;SDS011;33524;55.434;38.520;2022-09-12T11:47:11;14.27;;;7.78;;
47760;SDS011;33524;55.434;38.520;2022-09-12T11:49:41;14.50;;;7.93;;
47760;SDS011;33524;55.434;38.520;2022-09-12T11:52:14;15.60;;;9.15;;
47760;SDS011;33524;55.434;38.520;2022-09-12T12:00:04;12.15;;;7.55;;
47760;SDS011;33524;55.434;38.520;2022-09-12T12:02:42;11.10;;;6.97;;
47760;SDS011;33524;55.434;38.520;2022-09-12T12:05:25;11.27;;;7.43;;
47760;SDS011;33524;55.434;38.520;2022-09-12T12:08:02;10.93;;;6.35;;
47760;SDS011;33524;55.434;38.520;2022-09-12T12:13:28;12.55;;;7.18;;
47760;SDS011;33524;55.434;38.520;2022-09-12T12:16:04;12.80;;;6.82;;
47760;SDS011;33524;55.434;38.520;2022-09-12T12:18:35;10.35;;;6.53;;
47760;SDS011;33524;55.434;38.520;2022-09-12T12:34:35;9.05;;;5.53;;
47760;SDS011;33524;55.434;38.520;2022-09-12T12:45:42;8.82;;;5.12;;
47760;SDS011;33524;55.434;38.520;2022-09-12T12:47:54;8.85;;;5.20;;
47760;SDS011;33524;55.434;38.520;2022-09-12T12:50:31;7.25;;;4.47;;
47760;SDS011;33524;55.434;38.520;2022-09-12T12:53:02;6.75;;;4.72;;
47760;SDS011;33524;55.434;38.520;2022-09-12T13:03:37;5.43;;;3.70;;
47760;SDS011;33524;55.434;38.520;2022-09-12T13:09:27;6.50;;;3.62;;
47760;SDS011;33524;55.434;38.520;2022-09-12T13:12:30;6.10;;;3.53;;
47760;SDS011;33524;55.434;38.520;2022-09-12T13:18:03;5.62;;;3.22;;
47760;SDS011;33524;55.434;38.520;2022-09-12T13:20:35;5.95;;;3.95;;
47760;SDS011;33524;55.434;38.520;2022-09-12T13:23:24;4.78;;;2.97;;
47760;SDS011;33524;55.434;38.520;2022-09-12T13:25:58;6.55;;;3.53;;
47760;SDS011;33524;55.434;38.520;2022-09-12T13:28:27;5.22;;;3.15;;
47760;SDS011;33524;55.434;38.520;2022-09-12T13:30:58;6.45;;;3.62;;
47760;SDS011;33524;55.434;38.520;2022-09-12T13:33:33;5.43;;;3.17;;
47760;SDS011;33524;55.434;38.520;2022-09-12T13:36:06;7.07;;;3.70;;
47760;SDS011;33524;55.434;38.520;2022-09-12T13:44:19;4.32;;;3.08;;
47760;SDS011;33524;55.434;38.520;2022-09-12T13:46:49;6.43;;;2.65;;
47760;SDS011;33524;55.434;38.520;2022-09-12T13:49:36;4.15;;;2.42;;
47760;SDS011;33524;55.434;38.520;2022-09-12T13:52:13;5.70;;;2.95;;
47760;SDS011;33524;55.434;38.520;2022-09-12T13:54:45;4.43;;;2.40;;
47760;SDS011;33524;55.434;38.520;2022-09-12T13:57:32;4.97;;;2.53;;
47760;SDS011;33524;55.434;38.520;2022-09-12T14:02:46;3.87;;;2.78;;
47760;SDS011;33524;55.434;38.520;2022-09-12T14:05:19;2.83;;;2.25;;
47760;SDS011;33524;55.434;38.520;2022-09-12T14:07:52;3.30;;;2.50;;
47760;SDS011;33524;55.434;38.520;2022-09-12T14:10:42;3.85;;;2.40;;
47760;SDS011;33524;55.434;38.520;2022-09-12T14:13:23;5.30;;;2.40;;
47760;SDS011;33524;55.434;38.520;2022-09-12T14:15:53;7.95;;;3.00;;
47760;SDS011;33524;55.434;38.520;2022-09-12T14:18:24;4.20;;;2.70;;
47760;SDS011;33524;55.434;38.520;2022-09-12T14:20:55;3.90;;;2.65;;
47760;SDS011;33524;55.434;38.520;2022-09-12T14:23:31;5.10;;;2.45;;
47760;SDS011;33524;55.434;38.520;2022-09-12T14:26:01;5.18;;;2.70;;
47760;SDS011;33524;55.434;38.520;2022-09-12T14:28:31;4.50;;;2.58;;
47760;SDS011;33524;55.434;38.520;2022-09-12T14:33:44;5.45;;;2.55;;
47760;SDS011;33524;55.434;38.520;2022-09-12T14:36:34;2.95;;;2.10;;
47760;SDS011;33524;55.434;38.520;2022-09-12T14:41:48;3.20;;;2.40;;
47760;SDS011;33524;55.434;38.520;2022-09-12T14:44:23;5.37;;;2.92;;
47760;SDS011;33524;55.434;38.520;2022-09-12T14:46:53;3.67;;;2.53;;
47760;SDS011;33524;55.434;38.520;2022-09-12T14:51:58;5.00;;;3.00;;
47760;SDS011;33524;55.434;38.520;2022-09-12T14:57:17;4.57;;;3.10;;
47760;SDS011;33524;55.434;38.520;2022-09-12T15:02:39;4.20;;;2.47;;
47760;SDS011;33524;55.434;38.520;2022-09-12T15:07:38;6.12;;;3.20;;
47760;SDS011;33524;55.434;38.520;2022-09-12T15:15:35;5.78;;;3.20;;
47760;SDS011;33524;55.434;38.520;2022-09-12T15:18:05;6.62;;;2.97;;
47760;SDS011;33524;55.434;38.520;2022-09-12T15:20:36;4.60;;;2.80;;
47760;SDS011;33524;55.434;38.520;2022-09-12T15:25:37;5.62;;;3.25;;
47760;SDS011;33524;55.434;38.520;2022-09-12T15:28:08;5.12;;;3.30;;
47760;SDS011;33524;55.434;38.520;2022-09-12T15:30:42;5.28;;;3.30;;
47760;SDS011;33524;55.434;38.520;2022-09-12T15:33:11;4.50;;;3.40;;
47760;SDS011;33524;55.434;38.520;2022-09-12T15:35:38;8.52;;;4.80;;
47760;SDS011;33524;55.434;38.520;2022-09-12T15:38:07;5.10;;;3.25;;
47760;SDS011;33524;55.434;38.520;2022-09-12T15:40:34;6.22;;;4.20;;
47760;SDS011;33524;55.434;38.520;2022-09-12T15:43:02;6.97;;;3.67;;
47760;SDS011;33524;55.434;38.520;2022-09-12T15:45:32;5.87;;;3.20;;
47760;SDS011;33524;55.434;38.520;2022-09-12T15:48:00;6.85;;;3.95;;
47760;SDS011;33524;55.434;38.520;2022-09-12T15:50:29;5.97;;;4.00;;
47760;SDS011;33524;55.434;38.520;2022-09-12T15:52:58;8.48;;;3.95;;
47760;SDS011;33524;55.434;38.520;2022-09-12T15:55:29;7.22;;;3.85;;
47760;SDS011;33524;55.434;38.520;2022-09-12T15:57:58;7.47;;;3.92;;
47760;SDS011;33524;55.434;38.520;2022-09-12T16:00:32;5.68;;;3.53;;
47760;SDS011;33524;55.434;38.520;2022-09-12T16:03:01;6.53;;;4.25;;
47760;SDS011;33524;55.434;38.520;2022-09-12T16:05:30;5.78;;;3.60;;
47760;SDS011;33524;55.434;38.520;2022-09-12T16:07:57;6.57;;;3.95;;
47760;SDS011;33524;55.434;38.520;2022-09-12T16:10:29;5.65;;;4.18;;
47760;SDS011;33524;55.434;38.520;2022-09-12T16:12:59;4.87;;;3.92;;
47760;SDS011;33524;55.434;38.520;2022-09-12T16:15:28;10.77;;;4.95;;
47760;SDS011;33524;55.434;38.520;2022-09-12T16:17:56;8.23;;;5.60;;
47760;SDS011;33524;55.434;38.520;2022-09-12T16:20:23;9.35;;;5.82;;
47760;SDS011;33524;55.434;38.520;2022-09-12T16:22:51;9.20;;;5.25;;
47760;SDS011;33524;55.434;38.520;2022-09-12T16:25:19;8.07;;;4.47;;
47760;SDS011;33524;55.434;38.520;2022-09-12T16:27:47;8.27;;;4.53;;
47760;SDS011;33524;55.434;38.520;2022-09-12T16:30:15;6.07;;;3.92;;
47760;SDS011;33524;55.434;38.520;2022-09-12T16:32:43;5.72;;;3.50;;
47760;SDS011;33524;55.434;38.520;2022-09-12T16:35:11;4.55;;;3.53;;
47760;SDS011;33524;55.434;38.520;2022-09-12T16:37:39;5.62;;;3.35;;
47760;SDS011;33524;55.434;38.520;2022-09-12T16:40:07;6.78;;;2.97;;
47760;SDS011;33524;55.434;38.520;2022-09-12T16:42:36;4.90;;;3.12;;
47760;SDS011;33524;55.434;38.520;2022-09-12T16:45:10;6.37;;;3.80;;
47760;SDS011;33524;55.434;38.520;2022-09-12T16:47:38;5.70;;;3.80;;
47760;SDS011;33524;55.434;38.520;2022-09-12T16:50:06;6.15;;;3.67;;
47760;SDS011;33524;55.434;38.520;2022-09-12T16:52:34;5.80;;;3.97;;
47760;SDS011;33524;55.434;38.520;2022-09-12T16:55:03;5.43;;;3.78;;
47760;SDS011;33524;55.434;38.520;2022-09-12T16:57:31;5.50;;;3.42;;
47760;SDS011;33524;55.434;38.520;2022-09-12T16:59:59;5.60;;;3.50;;
47760;SDS011;33524;55.434;38.520;2022-09-12T17:02:29;4.78;;;3.33;;
47760;SDS011;33524;55.434;38.520;2022-09-12T17:04:57;6.25;;;3.50;;
47760;SDS011;33524;55.434;38.520;2022-09-12T17:07:25;5.03;;;3.30;;
47760;SDS011;33524;55.434;38.520;2022-09-12T17:09:53;5.82;;;3.75;;
47760;SDS011;33524;55.434;38.520;2022-09-12T17:12:20;5.00;;;3.30;;
47760;SDS011;33524;55.434;38.520;2022-09-12T17:14:50;4.75;;;3.55;;
47760;SDS011;33524;55.434;38.520;2022-09-12T17:17:18;3.95;;;3.15;;
47760;SDS011;33524;55.434;38.520;2022-09-12T17:19:46;5.00;;;3.80;;
47760;SDS011;33524;55.434;38.520;2022-09-12T17:22:14;5.03;;;3.50;;
47760;SDS011;33524;55.434;38.520;2022-09-12T17:24:42;4.45;;;3.05;;
47760;SDS011;33524;55.434;38.520;2022-09-12T17:27:10;5.50;;;3.87;;
47760;SDS011;33524;55.434;38.520;2022-09-12T17:29:38;4.47;;;3.58;;
47760;SDS011;33524;55.434;38.520;2022-09-12T17:32:07;4.57;;;3.60;;
47760;SDS011;33524;55.434;38.520;2022-09-12T17:34:35;5.55;;;3.65;;
47760;SDS011;33524;55.434;38.520;2022-09-12T17:37:03;4.95;;;3.33;;
47760;SDS011;33524;55.434;38.520;2022-09-12T17:39:31;5.07;;;3.65;;
47760;SDS011;33524;55.434;38.520;2022-09-12T17:41:59;5.68;;;3.30;;
47760;SDS011;33524;55.434;38.520;2022-09-12T17:44:28;4.40;;;3.25;;
47760;SDS011;33524;55.434;38.520;2022-09-12T17:46:56;4.40;;;2.70;;
47760;SDS011;33524;55.434;38.520;2022-09-12T17:49:24;5.43;;;3.75;;
47760;SDS011;33524;55.434;38.520;2022-09-12T17:51:52;4.90;;;3.55;;
47760;SDS011;33524;55.434;38.520;2022-09-12T17:54:22;4.95;;;3.47;;
47760;SDS011;33524;55.434;38.520;2022-09-12T17:56:50;4.35;;;3.17;;
47760;SDS011;33524;55.434;38.520;2022-09-12T17:59:19;5.15;;;3.28;;
47760;SDS011;33524;55.434;38.520;2022-09-12T18:01:49;5.20;;;3.67;;
47760;SDS011;33524;55.434;38.520;2022-09-12T18:04:36;3.80;;;2.83;;
47760;SDS011;33524;55.434;38.520;2022-09-12T18:07:05;6.07;;;3.30;;
47760;SDS011;33524;55.434;38.520;2022-09-12T18:09:33;3.85;;;2.97;;